createdAt,value
2023-03-10T00:00:00.511Z,0.70
2023-03-10T00:02:30.295Z,0.87
2023-03-10T00:04:56.996Z,0.90
2023-03-10T00:07:23.603Z,1.43
2023-03-10T00:09:50.154Z,1.00
2023-03-10T00:12:16.866Z,1.20
2023-03-10T00:14:43.418Z,0.87
2023-03-10T00:17:09.971Z,1.30
2023-03-10T00:19:36.700Z,0.90
2023-03-10T00:22:03.838Z,1.40
2023-03-10T00:24:30.415Z,1.17
2023-03-10T00:26:56.995Z,1.03
2023-03-10T00:29:23.817Z,1.03
2023-03-10T00:31:50.519Z,1.73
2023-03-10T00:34:17.251Z,1.50
2023-03-10T00:36:43.988Z,0.97
2023-03-10T00:39:11.936Z,1.00
2023-03-10T00:41:41.720Z,2.30
2023-03-10T00:44:09.866Z,1.53
2023-03-10T00:46:41.319Z,1.40
2023-03-10T00:49:13.597Z,1.70
2023-03-10T00:51:40.873Z,1.90
2023-03-10T00:54:07.464Z,2.00
2023-03-10T00:56:34.053Z,2.00
2023-03-10T00:59:00.933Z,1.93
2023-03-10T01:01:28.972Z,1.60
2023-03-10T01:03:58.529Z,2.40
2023-03-10T01:06:25.291Z,1.50
2023-03-10T01:08:52.452Z,2.00
2023-03-10T01:11:21.412Z,2.60
2023-03-10T01:13:48.290Z,2.97
2023-03-10T01:16:15.397Z,2.07
2023-03-10T01:18:43.304Z,2.00
2023-03-10T01:21:15.393Z,1.70
2023-03-10T01:23:42.050Z,1.80
2023-03-10T01:26:08.679Z,1.80
2023-03-10T01:28:35.309Z,2.97
2023-03-10T01:31:05.440Z,2.00
2023-03-10T01:33:32.644Z,2.23
2023-03-10T01:35:59.300Z,2.93
2023-03-10T01:38:25.870Z,2.80
2023-03-10T01:40:53.737Z,3.00
2023-03-10T01:43:20.363Z,3.30
2023-03-10T01:45:47.725Z,2.10
2023-03-10T01:48:16.867Z,2.63
2023-03-10T01:50:44.598Z,1.20
2023-03-10T01:53:12.930Z,1.00
2023-03-10T01:55:42.142Z,0.97
2023-03-10T01:58:09.209Z,1.17
2023-03-10T02:00:36.500Z,0.90
2023-03-10T02:03:03.438Z,0.90
2023-03-10T02:05:31.280Z,0.70
2023-03-10T02:07:59.311Z,0.80
2023-03-10T02:10:26.639Z,1.00
2023-03-10T02:12:53.144Z,0.87
2023-03-10T02:15:20.327Z,1.20
2023-03-10T02:17:47.976Z,1.13
2023-03-10T02:20:14.607Z,1.83
2023-03-10T02:22:41.285Z,1.20
2023-03-10T02:25:28.224Z,1.80
2023-03-10T02:27:55.141Z,2.17
2023-03-10T02:30:40.339Z,3.20
2023-03-10T02:33:09.866Z,1.67
2023-03-10T02:35:37.501Z,1.37
2023-03-10T02:38:08.784Z,1.40
2023-03-10T02:40:37.811Z,1.07
2023-03-10T02:43:16.773Z,1.40
2023-03-10T02:45:44.586Z,1.00
2023-03-10T02:48:13.478Z,1.23
2023-03-10T02:50:41.988Z,1.13
2023-03-10T02:53:13.588Z,0.80
2023-03-10T02:55:40.998Z,1.30
2023-03-10T02:58:07.702Z,1.53
2023-03-10T03:00:36.681Z,1.30
2023-03-10T03:03:03.602Z,2.73
2023-03-10T03:05:30.489Z,1.90
2023-03-10T03:07:57.376Z,1.40
2023-03-10T03:10:24.149Z,1.57
2023-03-10T03:12:51.402Z,1.20
2023-03-10T03:15:19.226Z,1.47
2023-03-10T03:17:45.905Z,1.17
2023-03-10T03:20:14.572Z,1.20
2023-03-10T03:22:43.853Z,1.50
2023-03-10T03:25:15.509Z,1.93
2023-03-10T03:27:42.958Z,1.93
2023-03-10T03:30:11.654Z,1.53
2023-03-10T03:32:39.487Z,1.07
2023-03-10T03:35:09.873Z,1.70
2023-03-10T03:37:36.483Z,1.80
2023-03-10T03:40:12.696Z,1.57
2023-03-10T03:42:42.069Z,1.07
2023-03-10T03:45:09.158Z,1.10
2023-03-10T03:47:36.317Z,1.80
2023-03-10T03:50:04.127Z,2.20
2023-03-10T03:52:31.077Z,1.70
2023-03-10T03:54:57.665Z,2.10
2023-03-10T03:57:24.773Z,3.73
2023-03-10T03:59:52.618Z,1.10
2023-03-10T04:02:19.865Z,1.63
2023-03-10T04:04:46.601Z,2.40
2023-03-10T04:07:14.887Z,1.80
2023-03-10T04:09:42.170Z,5.30
2023-03-10T04:12:09.796Z,2.37
2023-03-10T04:14:38.264Z,3.03
2023-03-10T04:17:05.604Z,2.70
2023-03-10T04:19:32.447Z,1.90
2023-03-10T04:22:04.940Z,1.80
2023-03-10T04:24:33.651Z,1.50
2023-03-10T04:27:00.944Z,2.37
2023-03-10T04:29:27.846Z,2.43
2023-03-10T04:32:05.247Z,1.97
2023-03-10T04:34:35.510Z,1.73
2023-03-10T04:37:02.993Z,1.93
2023-03-10T04:39:29.860Z,2.70
2023-03-10T04:41:56.792Z,3.50
2023-03-10T04:44:30.820Z,1.70
2023-03-10T04:47:00.672Z,1.97
2023-03-10T04:49:27.742Z,3.30
2023-03-10T04:51:54.948Z,2.20
2023-03-10T04:54:21.495Z,1.90
2023-03-10T04:56:48.156Z,2.23
2023-03-10T04:59:15.031Z,1.97
2023-03-10T05:01:41.749Z,1.50
2023-03-10T05:04:08.716Z,1.63
2023-03-10T05:06:35.352Z,2.27
2023-03-10T05:09:08.471Z,1.70
2023-03-10T05:11:35.322Z,1.77
2023-03-10T05:14:02.099Z,1.67
2023-03-10T05:16:28.840Z,1.00
2023-03-10T05:18:56.346Z,2.67
2023-03-10T05:21:26.380Z,2.07
2023-03-10T05:23:54.807Z,1.40
2023-03-10T05:26:23.142Z,1.80
2023-03-10T05:28:49.864Z,1.70
2023-03-10T05:31:26.157Z,1.87
2023-03-10T05:33:57.864Z,1.40
2023-03-10T05:36:24.579Z,2.53
2023-03-10T05:38:51.534Z,1.40
2023-03-10T05:41:18.612Z,1.77
2023-03-10T05:43:48.691Z,2.30
2023-03-10T05:46:16.847Z,1.30
2023-03-10T05:48:49.590Z,3.20
2023-03-10T05:51:16.543Z,1.10
2023-03-10T05:53:43.171Z,1.40
2023-03-10T05:56:19.539Z,2.20
2023-03-10T05:58:50.956Z,1.97
2023-03-10T06:01:20.274Z,1.67
2023-03-10T06:03:46.938Z,1.83
2023-03-10T06:06:13.493Z,1.73
2023-03-10T06:08:40.343Z,2.13
2023-03-10T06:11:06.962Z,1.77
2023-03-10T06:13:33.548Z,2.83
2023-03-10T06:16:01.248Z,1.33
2023-03-10T06:18:28.198Z,2.00
2023-03-10T06:20:55.117Z,1.50
2023-03-10T06:23:22.228Z,1.87
2023-03-10T06:25:59.271Z,1.37
2023-03-10T06:28:26.690Z,1.53
2023-03-10T06:31:00.352Z,2.20
2023-03-10T06:33:27.266Z,1.83
2023-03-10T06:35:53.958Z,1.40
2023-03-10T06:38:20.741Z,0.90
2023-03-10T06:40:47.384Z,1.73
2023-03-10T06:43:14.328Z,2.60
2023-03-10T06:45:41.737Z,1.97
2023-03-10T06:48:08.461Z,1.30
2023-03-10T06:50:43.646Z,2.30
2023-03-10T06:53:11.021Z,1.53
2023-03-10T06:55:37.661Z,1.70
2023-03-10T06:58:04.399Z,1.60
2023-03-10T07:00:31.030Z,1.70
2023-03-10T07:02:57.706Z,2.53
2023-03-10T07:05:24.755Z,2.00
2023-03-10T07:07:51.596Z,2.57
2023-03-10T07:10:18.397Z,3.23
2023-03-10T07:12:45.873Z,2.40
2023-03-10T07:15:12.394Z,3.83
2023-03-10T07:17:38.952Z,3.77
2023-03-10T07:20:05.857Z,3.97
2023-03-10T07:22:32.421Z,3.37
2023-03-10T07:24:58.978Z,4.73
2023-03-10T07:27:25.525Z,3.83
2023-03-10T07:29:52.249Z,4.17
2023-03-10T07:32:18.801Z,2.60
2023-03-10T07:34:45.327Z,3.20
2023-03-10T07:37:12.169Z,2.80
2023-03-10T07:39:38.658Z,2.77
2023-03-10T07:42:06.160Z,2.17
2023-03-10T07:44:33.282Z,2.10
2023-03-10T07:46:59.932Z,2.50
2023-03-10T07:49:26.472Z,3.20
2023-03-10T07:51:53.011Z,2.50
2023-03-10T07:54:19.847Z,2.80
2023-03-10T07:56:46.450Z,1.93
2023-03-10T07:59:13.135Z,1.83
2023-03-10T08:01:39.725Z,1.83
2023-03-10T08:04:06.696Z,3.33
2023-03-10T08:06:35.626Z,2.60
2023-03-10T08:09:03.078Z,2.30
2023-03-10T08:11:29.626Z,1.77
2023-03-10T08:13:56.484Z,1.60
2023-03-10T08:16:23.553Z,2.70
2023-03-10T08:18:51.534Z,2.87
2023-03-10T08:21:18.039Z,2.50
2023-03-10T08:23:44.753Z,5.00
2023-03-10T08:26:13.248Z,2.87
2023-03-10T08:28:40.064Z,2.87
2023-03-10T08:31:08.468Z,2.90
2023-03-10T08:33:35.186Z,3.87
2023-03-10T08:36:09.633Z,1.77
2023-03-10T08:38:36.561Z,1.83
2023-03-10T08:41:29.595Z,3.33
2023-03-10T08:43:58.294Z,2.10
2023-03-10T08:46:26.214Z,2.30
2023-03-10T08:48:52.973Z,3.40
2023-03-10T08:51:19.521Z,3.40
2023-03-10T08:53:47.163Z,3.23
2023-03-10T08:56:14.478Z,2.37
2023-03-10T08:58:41.040Z,7.10
2023-03-10T09:01:07.876Z,3.10
2023-03-10T09:03:38.397Z,3.00
2023-03-10T09:06:05.616Z,3.13
2023-03-10T09:08:32.168Z,2.43
2023-03-10T09:10:58.726Z,2.47
2023-03-10T09:13:25.569Z,3.03
2023-03-10T09:15:52.995Z,2.23
2023-03-10T09:18:20.055Z,2.63
2023-03-10T09:20:46.757Z,2.07
2023-03-10T09:23:14.061Z,2.30
2023-03-10T09:25:40.656Z,2.70
2023-03-10T09:28:07.772Z,2.23
2023-03-10T09:30:37.343Z,2.53
2023-03-10T09:33:04.604Z,1.67
2023-03-10T09:35:31.219Z,3.57
2023-03-10T09:37:57.950Z,1.90
2023-03-10T09:40:24.733Z,1.27
2023-03-10T09:42:56.547Z,1.70
2023-03-10T09:45:23.081Z,1.50
2023-03-10T09:48:08.482Z,1.97
2023-03-10T09:50:46.170Z,1.93
2023-03-10T09:53:16.101Z,1.20
2023-03-10T09:55:47.721Z,1.50
2023-03-10T09:58:33.481Z,1.80
2023-03-10T10:01:00.581Z,2.07
2023-03-10T10:03:51.484Z,1.20
2023-03-10T10:06:25.760Z,1.30
2023-03-10T10:09:04.896Z,1.30
2023-03-10T10:11:33.310Z,1.40
2023-03-10T10:14:22.400Z,1.93
2023-03-10T10:16:55.597Z,1.60
2023-03-10T10:19:23.420Z,2.87
2023-03-10T10:21:53.021Z,2.00
2023-03-10T10:24:20.243Z,0.93
2023-03-10T10:26:47.072Z,0.87
2023-03-10T10:29:23.544Z,1.90
2023-03-10T10:32:08.900Z,0.80
2023-03-10T10:34:37.118Z,0.80
2023-03-10T10:37:04.067Z,1.40
2023-03-10T10:39:31.500Z,0.90
2023-03-10T10:42:17.226Z,0.77
2023-03-10T10:44:44.597Z,0.77
2023-03-10T10:47:30.046Z,0.93
2023-03-10T10:50:29.377Z,0.90
2023-03-10T10:53:11.492Z,0.70
2023-03-10T10:55:38.160Z,0.97
2023-03-10T10:58:10.540Z,1.57
2023-03-10T11:00:38.520Z,0.70
2023-03-10T11:03:25.380Z,1.70
2023-03-10T11:05:51.966Z,1.00
2023-03-10T11:08:40.726Z,0.90
2023-03-10T11:11:13.502Z,0.70
2023-03-10T11:13:51.285Z,0.63
2023-03-10T11:16:22.970Z,0.77
2023-03-10T11:18:52.979Z,0.73
2023-03-10T11:21:26.222Z,0.77
2023-03-10T11:23:52.780Z,0.90
2023-03-10T11:26:38.066Z,0.67
2023-03-10T11:29:10.997Z,1.67
2023-03-10T11:31:37.607Z,0.80
2023-03-10T11:34:04.193Z,0.70
2023-03-10T11:36:43.279Z,0.83
2023-03-10T11:39:22.388Z,1.00
2023-03-10T11:41:52.571Z,0.70
2023-03-10T11:44:27.798Z,0.60
2023-03-10T11:47:03.568Z,1.00
2023-03-10T11:49:40.545Z,1.03
2023-03-10T11:52:12.440Z,0.73
2023-03-10T11:54:49.917Z,2.90
2023-03-10T11:57:20.782Z,0.70
2023-03-10T11:59:54.070Z,2.07
2023-03-10T12:02:20.602Z,1.33
2023-03-10T12:04:51.028Z,0.60
2023-03-10T12:07:29.027Z,0.70
2023-03-10T12:09:59.626Z,1.27
2023-03-10T12:12:34.446Z,0.57
2023-03-10T12:15:02.774Z,0.60
2023-03-10T12:17:29.464Z,0.90
2023-03-10T12:20:10.661Z,0.60
2023-03-10T12:22:50.207Z,0.50
2023-03-10T12:25:29.104Z,0.50
2023-03-10T12:28:08.117Z,0.70
2023-03-10T12:30:47.340Z,0.70
2023-03-10T12:33:39.515Z,0.60
2023-03-10T12:36:15.385Z,0.70
2023-03-10T12:38:51.150Z,0.80
2023-03-10T12:41:26.974Z,0.70
2023-03-10T12:43:56.663Z,0.87
2023-03-10T12:46:26.963Z,0.70
2023-03-10T12:49:11.036Z,0.80
2023-03-10T12:51:43.042Z,0.80
2023-03-10T12:54:24.941Z,0.70
2023-03-10T12:57:01.150Z,0.90
2023-03-10T12:59:33.125Z,0.73
2023-03-10T13:02:01.000Z,0.70
2023-03-10T13:04:27.654Z,0.80
2023-03-10T13:07:03.628Z,1.70
2023-03-10T13:09:37.130Z,0.77
2023-03-10T13:12:14.837Z,1.53
2023-03-10T13:14:42.340Z,1.17
2023-03-10T13:17:21.776Z,1.80
2023-03-10T13:19:57.254Z,1.40
2023-03-10T13:22:23.778Z,1.50
2023-03-10T13:24:57.781Z,2.03
2023-03-10T13:27:27.920Z,1.90
2023-03-10T13:30:13.337Z,1.40
2023-03-10T13:32:40.031Z,1.17
2023-03-10T13:35:35.764Z,1.50
2023-03-10T13:38:06.623Z,1.50
2023-03-10T13:40:33.468Z,1.23
2023-03-10T13:43:00.424Z,0.83
2023-03-10T13:45:34.018Z,0.90
2023-03-10T13:48:04.004Z,0.90
2023-03-10T13:50:30.745Z,0.90
2023-03-10T13:52:59.634Z,1.37
2023-03-10T13:55:38.417Z,0.80
2023-03-10T13:58:05.065Z,0.70
2023-03-10T14:00:32.096Z,0.80
2023-03-10T14:02:58.703Z,0.87
2023-03-10T14:05:37.823Z,0.70
2023-03-10T14:08:04.472Z,0.97
2023-03-10T14:10:31.059Z,1.30
2023-03-10T14:12:57.592Z,1.20
2023-03-10T14:15:25.615Z,1.10
2023-03-10T14:18:13.411Z,1.10
2023-03-10T14:20:44.010Z,1.10
2023-03-10T14:23:19.901Z,0.90
2023-03-10T14:25:46.902Z,1.30
2023-03-10T14:28:18.449Z,1.10
2023-03-10T14:30:45.404Z,1.20
2023-03-10T14:33:12.798Z,1.47
2023-03-10T14:35:39.958Z,1.13
2023-03-10T14:38:06.553Z,1.20
2023-03-10T14:40:38.612Z,1.97
2023-03-10T14:43:05.668Z,2.57
2023-03-10T14:45:34.183Z,1.93
2023-03-10T14:48:06.881Z,1.20
2023-03-10T14:50:33.890Z,2.13
2023-03-10T14:53:00.459Z,1.67
2023-03-10T14:55:27.629Z,1.90
2023-03-10T14:57:56.966Z,1.73
2023-03-10T15:00:23.988Z,1.57
2023-03-10T15:02:50.787Z,2.10
2023-03-10T15:05:20.210Z,2.17
2023-03-10T15:07:48.790Z,1.67
2023-03-10T15:10:17.086Z,2.50
2023-03-10T15:12:44.401Z,1.93
2023-03-10T15:15:16.312Z,2.13
2023-03-10T15:17:42.966Z,2.30
2023-03-10T15:20:14.165Z,2.47
2023-03-10T15:22:41.130Z,2.00
2023-03-10T15:25:08.010Z,1.53
2023-03-10T15:27:34.736Z,1.70
2023-03-10T15:30:01.315Z,2.40
2023-03-10T15:32:27.977Z,1.87
2023-03-10T15:34:54.607Z,1.20
2023-03-10T15:37:21.149Z,1.30
2023-03-10T15:39:47.713Z,2.00
2023-03-10T15:42:14.436Z,1.70
2023-03-10T15:44:42.592Z,2.40
2023-03-10T15:47:09.287Z,11.40
2023-03-10T15:49:38.572Z,2.47
2023-03-10T15:52:05.324Z,3.73
2023-03-10T15:54:34.975Z,3.80
2023-03-10T15:57:01.594Z,1.90
2023-03-10T15:59:28.209Z,1.13
2023-03-10T16:01:54.878Z,0.80
2023-03-10T16:04:21.911Z,0.93
2023-03-10T16:06:48.594Z,0.87
2023-03-10T16:09:15.421Z,1.03
2023-03-10T16:11:42.006Z,0.83
2023-03-10T16:14:08.782Z,1.13
2023-03-10T16:16:36.117Z,0.60
2023-03-10T16:19:03.833Z,0.87
2023-03-10T16:21:31.544Z,0.93
2023-03-10T16:23:58.257Z,1.60
2023-03-10T16:26:33.950Z,1.30
2023-03-10T16:29:00.589Z,1.20
2023-03-10T16:31:31.023Z,1.13
2023-03-10T16:33:58.253Z,1.77
2023-03-10T16:36:26.408Z,1.80
2023-03-10T16:38:57.344Z,2.27
2023-03-10T16:41:24.437Z,2.20
2023-03-10T16:43:51.582Z,3.13
2023-03-10T16:46:30.060Z,2.50
2023-03-10T16:49:01.993Z,2.27
2023-03-10T16:51:33.637Z,2.20
2023-03-10T16:54:07.437Z,3.00
2023-03-10T16:56:38.552Z,3.13
2023-03-10T16:59:06.085Z,1.67
2023-03-10T17:01:32.891Z,2.20
2023-03-10T17:04:00.020Z,2.80
2023-03-10T17:06:28.216Z,2.30
2023-03-10T17:08:55.276Z,2.97
2023-03-10T17:11:23.420Z,2.38
2023-03-10T17:13:53.165Z,3.95
2023-03-10T17:16:20.561Z,5.00
2023-03-10T17:18:47.715Z,2.90
2023-03-10T17:21:19.564Z,3.42
2023-03-10T17:23:46.872Z,3.05
2023-03-10T17:26:14.238Z,4.35
2023-03-10T17:28:41.415Z,3.28
2023-03-10T17:31:12.927Z,2.95
2023-03-10T17:33:40.958Z,2.80
2023-03-10T17:36:09.950Z,3.03
2023-03-10T17:38:36.935Z,3.20
2023-03-10T17:41:04.416Z,3.50
2023-03-10T17:43:34.742Z,3.45
2023-03-10T17:46:03.222Z,3.70
2023-03-10T17:48:31.368Z,3.17
2023-03-10T17:50:58.273Z,4.68
2023-03-10T17:53:25.776Z,3.10
2023-03-10T17:55:52.567Z,2.80
2023-03-10T17:58:19.562Z,2.80
2023-03-10T18:00:48.365Z,2.87
2023-03-10T18:03:16.701Z,2.50
2023-03-10T18:05:43.999Z,4.97
2023-03-10T18:08:11.724Z,4.23
2023-03-10T18:10:38.982Z,4.23
2023-03-10T18:13:10.654Z,4.63
2023-03-10T18:15:37.855Z,6.25
2023-03-10T18:18:04.920Z,5.55
2023-03-10T18:20:32.153Z,5.93
2023-03-10T18:22:59.305Z,6.70
2023-03-10T18:25:26.102Z,4.93
2023-03-10T18:27:52.627Z,2.70
2023-03-10T18:30:20.670Z,5.50
2023-03-10T18:32:47.324Z,3.60
2023-03-10T18:35:14.153Z,4.00
2023-03-10T18:37:40.801Z,4.13
2023-03-10T18:40:09.171Z,3.73
2023-03-10T18:42:38.070Z,2.63
2023-03-10T18:45:05.195Z,3.43
2023-03-10T18:47:31.946Z,3.00
2023-03-10T18:49:58.795Z,2.57
2023-03-10T18:52:25.623Z,1.97
2023-03-10T18:54:53.334Z,2.70
2023-03-10T18:57:19.935Z,2.53
2023-03-10T18:59:46.814Z,2.20
2023-03-10T19:02:14.671Z,2.70
2023-03-10T19:04:41.856Z,3.67
2023-03-10T19:07:08.814Z,3.07
2023-03-10T19:09:35.520Z,3.23
2023-03-10T19:12:02.258Z,3.27
2023-03-10T19:14:28.907Z,3.20
2023-03-10T19:16:55.444Z,4.00
2023-03-10T19:19:22.274Z,3.43
2023-03-10T19:21:48.865Z,3.80
2023-03-10T19:24:15.452Z,3.93
2023-03-10T19:26:43.517Z,4.50
2023-03-10T19:29:10.067Z,3.43
2023-03-10T19:31:36.721Z,4.30
2023-03-10T19:34:03.433Z,4.50
2023-03-10T19:36:30.378Z,4.30
2023-03-10T19:38:57.059Z,5.77
2023-03-10T19:41:23.808Z,6.37
2023-03-10T19:43:52.047Z,3.70
2023-03-10T19:46:18.853Z,5.13
2023-03-10T19:48:45.600Z,3.97
2023-03-10T19:51:22.964Z,5.00
2023-03-10T19:53:50.485Z,4.40
2023-03-10T19:56:17.964Z,6.10
2023-03-10T19:58:45.954Z,5.07
2023-03-10T20:01:13.365Z,6.20
2023-03-10T20:03:39.977Z,5.10
2023-03-10T20:06:06.793Z,4.50
2023-03-10T20:08:34.136Z,5.40
2023-03-10T20:11:04.305Z,3.42
2023-03-10T20:13:31.513Z,2.37
2023-03-10T20:15:58.770Z,4.50
2023-03-10T20:18:25.489Z,3.97
2023-03-10T20:20:52.479Z,4.93
2023-03-10T20:23:19.419Z,5.50
2023-03-10T20:25:46.719Z,4.90
2023-03-10T20:28:13.622Z,5.00
2023-03-10T20:30:41.399Z,3.50
2023-03-10T20:33:08.315Z,3.65
2023-03-10T20:35:35.175Z,2.60
2023-03-10T20:38:02.228Z,3.78
2023-03-10T20:40:28.975Z,3.63
2023-03-10T20:42:57.246Z,3.20
2023-03-10T20:45:23.826Z,3.17
2023-03-10T20:47:50.663Z,2.20
2023-03-10T20:50:17.413Z,3.42
2023-03-10T20:52:44.440Z,3.65
2023-03-10T20:55:16.554Z,2.63
2023-03-10T20:57:43.259Z,2.22
2023-03-10T21:00:12.253Z,2.95
2023-03-10T21:02:39.088Z,2.30
2023-03-10T21:05:06.080Z,2.45
2023-03-10T21:07:33.554Z,3.30
2023-03-10T21:10:00.475Z,2.28
2023-03-10T21:12:28.064Z,2.45
2023-03-10T21:14:54.652Z,2.20
2023-03-10T21:17:21.549Z,2.17
2023-03-10T21:19:48.052Z,2.60
2023-03-10T21:22:14.586Z,2.85
2023-03-10T21:24:41.149Z,2.28
2023-03-10T21:27:07.686Z,3.05
2023-03-10T21:29:35.515Z,2.95
2023-03-10T21:32:02.418Z,4.13
2023-03-10T21:34:31.537Z,3.80
2023-03-10T21:36:58.412Z,3.50
2023-03-10T21:39:24.926Z,1.80
2023-03-10T21:41:51.597Z,2.40
2023-03-10T21:44:18.179Z,3.85
2023-03-10T21:46:45.933Z,4.43
2023-03-10T21:49:12.764Z,2.72
2023-03-10T21:51:39.326Z,2.53
2023-03-10T21:54:06.004Z,2.67
2023-03-10T21:56:32.609Z,2.38
2023-03-10T21:58:59.220Z,2.53
2023-03-10T22:01:26.894Z,2.35
2023-03-10T22:03:53.584Z,1.63
2023-03-10T22:06:20.160Z,2.65
2023-03-10T22:08:46.735Z,2.08
2023-03-10T22:11:13.676Z,1.85
2023-03-10T22:13:40.765Z,2.57
2023-03-10T22:16:08.228Z,1.75
2023-03-10T22:18:34.800Z,3.10
2023-03-10T22:21:01.304Z,3.10
2023-03-10T22:23:28.136Z,3.80
2023-03-10T22:25:55.050Z,2.25
2023-03-10T22:28:21.606Z,3.78
2023-03-10T22:30:49.356Z,2.70
2023-03-10T22:33:15.875Z,2.70
2023-03-10T22:35:42.467Z,3.27
2023-03-10T22:38:09.378Z,2.23
2023-03-10T22:40:35.937Z,2.90
2023-03-10T22:43:02.457Z,2.65
2023-03-10T22:45:30.781Z,3.67
2023-03-10T22:48:01.855Z,2.90
2023-03-10T22:50:29.801Z,3.10
2023-03-10T22:52:56.581Z,3.23
2023-03-10T22:55:24.511Z,3.60
2023-03-10T22:57:51.963Z,2.70
2023-03-10T23:00:20.142Z,3.10
2023-03-10T23:02:47.564Z,5.63
2023-03-10T23:05:15.518Z,2.83
2023-03-10T23:07:42.464Z,3.70
2023-03-10T23:10:14.412Z,2.13
2023-03-10T23:12:41.065Z,2.97
2023-03-10T23:15:15.358Z,3.20
2023-03-10T23:17:49.264Z,4.90
2023-03-10T23:20:16.365Z,2.05
2023-03-10T23:22:44.754Z,1.80
2023-03-10T23:25:23.156Z,3.13
2023-03-10T23:27:49.736Z,3.10
2023-03-10T23:30:17.275Z,2.27
2023-03-10T23:32:44.761Z,2.50
2023-03-10T23:35:12.133Z,3.07
2023-03-10T23:37:38.928Z,5.40
2023-03-10T23:40:10.460Z,2.60
2023-03-10T23:42:41.365Z,3.40
2023-03-10T23:45:10.711Z,2.30
2023-03-10T23:47:37.603Z,2.40
2023-03-10T23:50:06.404Z,2.47
2023-03-10T23:52:33.234Z,3.17
2023-03-10T23:55:00.006Z,2.10
2023-03-10T23:57:26.673Z,2.38
2023-03-10T23:59:53.206Z,3.17
